Time;durP1;ratioP1;P1;durP2;ratioP2;P2;SDS_P1;SDS_P2;PMS_P1;PMS_P2;Temp;Humidity;BMP_temperature;BMP_pressure;BME280_temperature;BME280_humidity;BME280_pressure;Samples;Min_cycle;Max_cycle;Signal;HPM_P1;HPM_P2
2021/04/30 00:01:23;;;;;;;29.27;20.97;;;7.50;99.90;;;;;;5000172;28;20666;-73
2021/04/30 00:03:49;;;;;;;29.63;21.47;;;7.50;99.90;;;;;;5000052;28;20181;-73
2021/04/30 00:06:14;;;;;;;26.37;20.87;;;7.60;99.90;;;;;;5016758;28;20190;-73
2021/04/30 00:08:40;;;;;;;29.93;21.63;;;7.60;99.90;;;;;;5000005;28;20260;-73
2021/04/30 00:11:07;;;;;;;28.27;21.47;;;7.60;99.90;;;;;;5034153;28;20580;-73
2021/04/30 00:13:36;;;;;;;30.90;21.33;;;7.50;99.90;;;;;;4999114;28;20646;-74
2021/04/30 00:16:02;;;;;;;26.17;20.77;;;7.50;99.90;;;;;;5016276;28;20193;-73
2021/04/30 00:18:28;;;;;;;30.53;22.53;;;7.50;99.90;;;;;;4999841;28;20635;-73
2021/04/30 00:20:56;;;;;;;27.90;21.23;;;7.50;99.90;;;;;;5016306;28;20267;-74
2021/04/30 00:23:29;;;;;;;28.03;21.17;;;7.50;99.90;;;;;;5016378;28;20205;-73
2021/04/30 00:25:55;;;;;;;24.77;20.43;;;7.60;99.90;;;;;;4985458;28;20175;-74
2021/04/30 00:28:21;;;;;;;24.20;20.20;;;7.60;99.90;;;;;;4999725;28;20268;-74
2021/04/30 00:30:47;;;;;;;24.33;19.13;;;7.60;99.90;;;;;;5015852;28;20189;-73
2021/04/30 00:33:12;;;;;;;28.40;20.37;;;7.60;99.90;;;;;;4999833;28;20198;-73
2021/04/30 00:35:38;;;;;;;25.77;20.50;;;7.60;99.90;;;;;;4999573;28;20216;-74
2021/04/30 00:38:04;;;;;;;26.37;21.33;;;7.50;99.90;;;;;;4983034;28;20221;-73
2021/04/30 00:40:29;;;;;;;27.80;21.53;;;7.50;99.90;;;;;;5015741;28;20236;-74
2021/04/30 00:42:55;;;;;;;25.80;20.27;;;7.50;99.90;;;;;;5033500;28;20186;-73
2021/04/30 00:45:23;;;;;;;27.97;22.37;;;7.50;99.90;;;;;;5015656;28;20225;-73
2021/04/30 00:47:49;;;;;;;28.20;22.03;;;7.60;99.90;;;;;;5015926;28;20191;-73
2021/04/30 00:50:14;;;;;;;26.57;20.93;;;7.50;99.90;;;;;;5015467;28;20702;-73
2021/04/30 00:52:40;;;;;;;28.13;21.67;;;7.50;99.90;;;;;;5015784;28;20240;-73
2021/04/30 00:55:11;;;;;;;25.93;21.37;;;7.50;99.90;;;;;;4999398;28;20253;-73
2021/04/30 00:57:37;;;;;;;29.33;21.67;;;7.50;99.90;;;;;;5033315;28;20169;-75
2021/04/30 01:00:12;;;;;;;32.73;23.10;;;7.50;99.90;;;;;;4999029;28;20198;-74
2021/04/30 01:02:38;;;;;;;27.17;21.77;;;7.50;99.90;;;;;;5033284;28;20210;-74
2021/04/30 01:05:05;;;;;;;28.40;22.63;;;7.50;99.90;;;;;;4982733;28;20188;-74
2021/04/30 01:07:31;;;;;;;31.83;22.73;;;7.50;99.90;;;;;;5015427;28;20170;-74
2021/04/30 01:09:57;;;;;;;32.33;24.53;;;7.50;99.90;;;;;;5015441;28;20256;-73
2021/04/30 01:12:22;;;;;;;30.63;24.80;;;7.50;99.90;;;;;;5015328;28;20713;-74
2021/04/30 01:14:48;;;;;;;30.27;23.27;;;7.50;99.90;;;;;;4982477;28;20505;-73
2021/04/30 01:17:14;;;;;;;30.67;23.33;;;7.60;99.90;;;;;;4982347;28;20179;-74
2021/04/30 01:19:40;;;;;;;33.17;24.20;;;7.50;99.90;;;;;;5015214;28;20717;-73
2021/04/30 01:22:05;;;;;;;34.87;25.13;;;7.50;99.90;;;;;;5014915;28;20171;-73
2021/04/30 01:24:31;;;;;;;33.97;24.40;;;7.50;99.90;;;;;;4998380;28;20236;-73
2021/04/30 01:26:56;;;;;;;33.33;24.77;;;7.50;99.90;;;;;;5032222;28;20174;-74
2021/04/30 01:29:22;;;;;;;36.23;26.20;;;7.50;99.90;;;;;;4998717;28;20249;-73
2021/04/30 01:31:47;;;;;;;34.63;26.43;;;7.50;99.90;;;;;;5014842;28;20194;-74
2021/04/30 01:34:13;;;;;;;33.33;25.27;;;7.50;99.90;;;;;;4998626;28;20183;-73
2021/04/30 01:36:39;;;;;;;34.50;26.03;;;7.60;99.90;;;;;;5014631;28;20182;-73
2021/04/30 01:39:06;;;;;;;35.67;25.93;;;7.50;99.90;;;;;;4998277;28;20224;-74
2021/04/30 01:41:33;;;;;;;33.40;26.00;;;7.50;99.90;;;;;;4998768;28;20204;-74
2021/04/30 01:43:58;;;;;;;35.70;26.93;;;7.50;99.90;;;;;;4998188;28;20645;-74
2021/04/30 01:46:24;;;;;;;34.57;26.40;;;7.50;99.90;;;;;;4998313;28;20167;-73
2021/04/30 01:48:49;;;;;;;34.53;26.43;;;7.60;99.90;;;;;;4998206;28;20249;-73
2021/04/30 01:51:15;;;;;;;37.33;26.20;;;7.60;99.90;;;;;;4998424;28;20311;-73
2021/04/30 01:53:41;;;;;;;35.80;26.80;;;7.60;99.90;;;;;;5014528;28;20220;-73
2021/04/30 01:56:07;;;;;;;34.97;26.63;;;7.60;99.90;;;;;;5032048;28;20182;-74
2021/04/30 01:58:33;;;;;;;41.07;28.10;;;7.60;99.90;;;;;;5014276;28;20205;-73
2021/04/30 02:00:58;;;;;;;36.63;28.10;;;7.50;99.90;;;;;;5014493;28;20206;-73
2021/04/30 02:03:24;;;;;;;38.33;28.23;;;7.50;99.90;;;;;;4998027;28;20173;-74
2021/04/30 02:05:50;;;;;;;40.33;28.17;;;7.60;99.90;;;;;;5014289;28;20403;-73
2021/04/30 02:08:16;;;;;;;39.70;28.87;;;7.60;99.90;;;;;;5014166;28;20237;-73
2021/04/30 02:10:42;;;;;;;39.33;29.03;;;7.60;99.90;;;;;;4997989;28;20188;-73
2021/04/30 02:13:08;;;;;;;38.50;29.60;;;7.60;99.90;;;;;;4981778;28;20675;-73
2021/04/30 02:15:34;;;;;;;41.27;29.30;;;7.60;99.90;;;;;;5014421;28;20213;-74
2021/04/30 02:18:00;;;;;;;45.20;29.50;;;7.60;99.90;;;;;;5013920;28;20211;-73
2021/04/30 02:20:26;;;;;;;42.87;29.07;;;7.60;99.90;;;;;;4981712;28;20194;-73
2021/04/30 02:22:52;;;;;;;38.87;29.13;;;7.60;99.90;;;;;;4997752;28;20183;-73
2021/04/30 02:25:18;;;;;;;41.50;29.80;;;7.70;99.90;;;;;;4981577;28;20175;-74
2021/04/30 02:27:44;;;;;;;43.53;30.60;;;7.70;99.90;;;;;;4997512;28;20226;-73
2021/04/30 02:30:10;;;;;;;41.57;29.80;;;7.60;99.90;;;;;;5014294;28;20194;-74
2021/04/30 02:32:36;;;;;;;46.60;30.70;;;7.60;99.90;;;;;;4997782;28;20185;-73
2021/04/30 02:35:04;;;;;;;44.03;30.13;;;7.70;99.90;;;;;;4997919;28;20182;-73
2021/04/30 02:37:29;;;;;;;41.47;30.73;;;7.80;99.90;;;;;;5001069;28;20556;-73
2021/04/30 02:39:55;;;;;;;43.03;30.57;;;7.80;99.90;;;;;;5018004;28;20195;-73
2021/04/30 02:42:20;;;;;;;43.67;30.87;;;7.80;99.90;;;;;;5018056;28;20293;-73
2021/04/30 02:44:46;;;;;;;44.97;30.53;;;7.70;99.90;;;;;;5017960;28;20187;-73
2021/04/30 02:47:13;;;;;;;41.50;30.27;;;7.70;99.90;;;;;;5017879;28;20174;-74
2021/04/30 02:49:47;;;;;;;42.87;30.83;;;7.70;99.90;;;;;;5001379;28;20194;-74
2021/04/30 02:52:16;;;;;;;45.37;30.87;;;7.80;99.90;;;;;;5034907;28;20312;-74
2021/04/30 02:54:42;;;;;;;46.07;30.33;;;7.80;99.90;;;;;;5001382;28;20187;-73
2021/04/30 02:57:08;;;;;;;43.63;29.53;;;7.70;99.90;;;;;;5001332;28;20171;-73
2021/04/30 02:59:33;;;;;;;39.97;29.23;;;7.70;99.90;;;;;;5001228;28;20228;-73
2021/04/30 03:01:59;;;;;;;45.53;30.90;;;7.70;99.90;;;;;;5017817;28;20175;-73
2021/04/30 03:04:25;;;;;;;42.80;31.17;;;7.70;99.90;;;;;;5017421;28;20199;-74
2021/04/30 03:06:50;;;;;;;42.80;29.83;;;7.70;99.90;;;;;;5035433;28;20202;-73
2021/04/30 03:09:16;;;;;;;40.00;29.30;;;7.70;99.90;;;;;;5017311;28;20252;-74
2021/04/30 03:11:42;;;;;;;41.13;29.37;;;7.60;99.90;;;;;;5017321;28;20576;-74
2021/04/30 03:14:07;;;;;;;44.30;28.77;;;7.70;99.90;;;;;;4984844;28;20209;-73
2021/04/30 03:16:33;;;;;;;38.90;29.37;;;7.70;99.90;;;;;;5001113;28;20179;-74
2021/04/30 03:18:59;;;;;;;40.40;29.60;;;7.80;99.90;;;;;;5017126;28;20203;-73
2021/04/30 03:21:24;;;;;;;42.03;29.73;;;7.80;99.90;;;;;;5000931;28;20208;-73
2021/04/30 03:23:50;;;;;;;42.70;30.10;;;7.80;99.90;;;;;;5000846;28;20253;-74
2021/04/30 03:26:15;;;;;;;42.80;30.63;;;7.90;99.90;;;;;;5017315;28;20168;-74
2021/04/30 03:28:41;;;;;;;43.33;30.70;;;7.90;99.90;;;;;;5000807;28;20670;-73
2021/04/30 03:31:06;;;;;;;42.67;28.80;;;7.90;99.90;;;;;;4984447;28;20182;-73
2021/04/30 03:33:32;;;;;;;46.70;30.90;;;7.90;99.90;;;;;;5017005;28;20528;-73
2021/04/30 03:35:58;;;;;;;40.80;30.20;;;7.90;99.90;;;;;;5000674;28;20586;-74
2021/04/30 03:38:23;;;;;;;42.17;30.27;;;8.00;99.90;;;;;;5059279;23;20242;-73
2021/04/30 03:40:52;;;;;;;44.67;30.50;;;7.90;99.90;;;;;;4997279;28;20217;-73
2021/04/30 03:43:17;;;;;;;41.93;30.80;;;8.00;99.90;;;;;;4997300;28;20213;-73
2021/04/30 03:45:43;;;;;;;41.97;30.83;;;8.00;99.90;;;;;;4997111;28;20253;-73
2021/04/30 03:48:08;;;;;;;41.03;30.03;;;7.90;99.90;;;;;;4996973;28;20207;-73
2021/04/30 03:50:34;;;;;;;41.80;30.17;;;7.90;99.90;;;;;;4964748;28;20176;-73
2021/04/30 03:53:00;;;;;;;45.60;31.03;;;7.80;99.90;;;;;;4980867;28;20191;-73
2021/04/30 03:55:25;;;;;;;43.37;30.93;;;7.80;99.90;;;;;;4997122;28;20182;-73
2021/04/30 03:57:51;;;;;;;41.93;30.63;;;7.80;99.90;;;;;;5014461;28;20274;-73
2021/04/30 04:00:17;;;;;;;41.20;30.43;;;7.80;99.90;;;;;;4980763;28;20600;-73
2021/04/30 04:02:42;;;;;;;44.23;32.43;;;7.80;99.90;;;;;;4996942;28;20176;-73
2021/04/30 04:05:08;;;;;;;44.07;31.07;;;7.80;99.90;;;;;;4996932;28;20220;-73
2021/04/30 04:07:34;;;;;;;44.20;30.67;;;7.80;99.90;;;;;;4996718;28;20179;-73
2021/04/30 04:10:00;;;;;;;42.40;31.73;;;7.90;99.90;;;;;;4980909;28;20592;-73
2021/04/30 04:12:25;;;;;;;39.07;30.53;;;8.00;99.90;;;;;;4980596;28;20209;-72
2021/04/30 04:14:51;;;;;;;46.27;31.93;;;8.00;99.90;;;;;;4980683;28;20635;-73
2021/04/30 04:17:17;;;;;;;46.17;31.43;;;7.90;99.90;;;;;;5014061;28;20579;-73
2021/04/30 04:19:48;;;;;;;41.43;32.23;;;7.90;99.90;;;;;;4980571;28;20195;-73
2021/04/30 04:22:16;;;;;;;44.77;31.47;;;7.80;99.90;;;;;;4997383;28;20188;-73
2021/04/30 04:24:42;;;;;;;44.57;32.90;;;7.80;99.90;;;;;;4997108;28;20275;-73
2021/04/30 04:27:08;;;;;;;47.43;31.87;;;7.80;99.90;;;;;;4980326;28;20242;-73
2021/04/30 04:29:34;;;;;;;50.97;32.93;;;7.80;99.90;;;;;;4996412;28;20191;-73
2021/04/30 04:32:00;;;;;;;45.27;32.67;;;7.90;99.90;;;;;;4980377;28;20647;-73
2021/04/30 04:34:25;;;;;;;44.77;33.20;;;7.90;99.90;;;;;;4996441;28;20239;-73
2021/04/30 04:36:51;;;;;;;44.80;32.73;;;7.90;99.90;;;;;;4980053;28;20175;-73
2021/04/30 04:39:17;;;;;;;43.40;31.83;;;8.00;99.90;;;;;;5013445;28;20594;-73
2021/04/30 04:41:43;;;;;;;44.53;31.80;;;8.00;99.90;;;;;;4996266;28;20202;-73
2021/04/30 04:44:08;;;;;;;41.30;31.00;;;8.00;99.90;;;;;;5013750;28;20639;-73
2021/04/30 04:46:34;;;;;;;42.47;30.87;;;8.00;99.90;;;;;;4979965;28;20183;-73
2021/04/30 04:48:59;;;;;;;48.77;33.60;;;8.00;99.90;;;;;;5013287;28;20203;-73
2021/04/30 04:51:25;;;;;;;48.73;33.60;;;8.00;99.90;;;;;;4995965;28;20180;-73
2021/04/30 04:53:51;;;;;;;42.97;32.07;;;8.10;99.90;;;;;;4996065;28;20201;-73
2021/04/30 04:56:16;;;;;;;44.13;31.77;;;8.00;99.90;;;;;;5013223;28;20298;-73
2021/04/30 04:58:42;;;;;;;43.43;31.83;;;8.10;99.90;;;;;;4995197;28;20203;-72
2021/04/30 05:01:08;;;;;;;43.10;31.80;;;8.10;99.90;;;;;;4995896;28;20618;-72
2021/04/30 05:03:34;;;;;;;44.83;32.43;;;8.30;99.90;;;;;;4995852;28;20427;-71
2021/04/30 05:05:59;;;;;;;48.00;33.27;;;8.20;99.90;;;;;;4995767;28;20266;-71
2021/04/30 05:08:25;;;;;;;45.30;32.00;;;8.30;99.90;;;;;;4979272;28;20291;-70
2021/04/30 05:10:50;;;;;;;46.93;31.70;;;8.20;99.90;;;;;;5013278;28;20211;-73
2021/04/30 05:13:16;;;;;;;47.93;33.17;;;8.10;99.90;;;;;;4979374;28;20188;-73
2021/04/30 05:15:41;;;;;;;44.87;32.70;;;8.10;99.90;;;;;;4979277;28;20237;-73
2021/04/30 05:18:07;;;;;;;44.13;31.83;;;8.10;99.90;;;;;;4979101;28;20704;-74
2021/04/30 05:20:32;;;;;;;41.23;30.97;;;8.20;99.90;;;;;;5013078;28;20681;-73
2021/04/30 05:23:00;;;;;;;45.33;33.40;;;8.10;99.90;;;;;;4995068;28;20635;-72
2021/04/30 05:25:25;;;;;;;47.73;32.83;;;8.10;99.90;;;;;;4995590;28;20631;-73
2021/04/30 05:27:51;;;;;;;43.57;33.20;;;8.20;99.90;;;;;;4995188;28;20217;-73
2021/04/30 05:30:16;;;;;;;44.87;32.83;;;8.40;99.90;;;;;;4995752;28;20207;-73
2021/04/30 05:32:42;;;;;;;42.70;31.53;;;8.40;99.90;;;;;;4978945;28;20202;-73
2021/04/30 05:35:08;;;;;;;44.63;31.67;;;8.60;99.90;;;;;;4995324;28;20314;-74
2021/04/30 05:37:33;;;;;;;44.60;30.63;;;8.70;99.90;;;;;;4994722;28;20190;-73
2021/04/30 05:39:59;;;;;;;41.23;30.23;;;8.80;99.90;;;;;;4979016;28;20208;-73
2021/04/30 05:42:26;;;;;;;41.53;31.70;;;8.70;99.90;;;;;;4995212;28;20172;-73
2021/04/30 05:44:52;;;;;;;44.23;30.67;;;8.70;99.90;;;;;;4995115;28;20551;-72
2021/04/30 05:47:18;;;;;;;40.83;30.40;;;8.80;99.90;;;;;;4977843;28;20183;-71
2021/04/30 05:49:44;;;;;;;42.90;31.73;;;8.70;99.90;;;;;;4994164;28;20200;-71
2021/04/30 05:52:09;;;;;;;43.37;31.13;;;8.70;99.90;;;;;;5012562;28;20206;-74
2021/04/30 05:54:35;;;;;;;42.63;30.27;;;8.90;99.90;;;;;;4994670;28;20555;-74
2021/04/30 05:57:00;;;;;;;42.70;30.93;;;8.90;99.90;;;;;;4978719;28;20184;-74
2021/04/30 05:59:26;;;;;;;37.17;30.00;;;9.00;99.90;;;;;;4994790;28;20199;-74
2021/04/30 06:01:51;;;;;;;40.67;30.33;;;9.00;99.90;;;;;;4994977;28;20204;-73
2021/04/30 06:04:17;;;;;;;42.10;30.97;;;9.00;99.90;;;;;;4994787;28;20184;-73
2021/04/30 06:06:49;;;;;;;40.37;30.70;;;9.00;99.90;;;;;;4975535;28;20234;-73
2021/04/30 06:09:15;;;;;;;44.50;31.17;;;9.10;99.90;;;;;;4993104;28;20199;-74
2021/04/30 06:11:40;;;;;;;42.30;31.07;;;9.20;99.90;;;;;;4993929;28;20210;-74
2021/04/30 06:14:06;;;;;;;46.13;32.07;;;9.20;99.90;;;;;;4994346;28;20216;-74
2021/04/30 06:16:31;;;;;;;41.47;31.13;;;9.10;99.90;;;;;;4994789;28;20194;-72
2021/04/30 06:18:57;;;;;;;41.60;29.60;;;9.20;99.90;;;;;;4977998;28;20211;-73
2021/04/30 06:21:22;;;;;;;43.60;30.97;;;9.00;99.90;;;;;;4994612;28;20222;-72
2021/04/30 06:23:48;;;;;;;42.13;32.23;;;9.10;99.90;;;;;;5016371;28;20188;-72
2021/04/30 06:26:13;;;;;;;44.67;31.97;;;9.10;99.90;;;;;;4981139;28;20291;-73
2021/04/30 06:28:39;;;;;;;39.60;30.97;;;9.10;99.90;;;;;;4992739;28;20203;-72
2021/04/30 06:31:04;;;;;;;43.27;30.73;;;9.10;99.90;;;;;;4993718;28;20556;-72
2021/04/30 06:33:30;;;;;;;40.20;30.77;;;9.20;99.90;;;;;;5026625;28;20547;-72
2021/04/30 06:35:57;;;;;;;44.77;31.07;;;9.20;99.90;;;;;;5011804;28;20314;-72
2021/04/30 06:38:23;;;;;;;39.53;29.37;;;9.30;99.90;;;;;;5026762;28;20234;-72
2021/04/30 06:40:48;;;;;;;37.27;28.97;;;9.30;99.90;;;;;;5027065;28;20690;-72
2021/04/30 06:43:14;;;;;;;39.97;30.67;;;9.30;99.90;;;;;;5010617;28;20642;-72
2021/04/30 06:45:40;;;;;;;37.33;28.07;;;9.30;99.90;;;;;;4994338;28;20596;-72
2021/04/30 06:48:06;;;;;;;41.37;30.17;;;9.50;99.90;;;;;;5011833;28;20195;-72
2021/04/30 06:50:31;;;;;;;41.20;30.13;;;9.50;99.90;;;;;;5008248;28;20184;-72
2021/04/30 06:52:57;;;;;;;38.13;28.50;;;9.50;99.90;;;;;;4994231;28;20194;-72
2021/04/30 06:55:22;;;;;;;39.33;29.07;;;9.60;99.90;;;;;;4995833;28;20192;-72
2021/04/30 06:57:48;;;;;;;38.50;28.50;;;9.50;99.90;;;;;;4997316;28;20203;-72
2021/04/30 07:00:17;;;;;;;41.30;28.80;;;9.40;99.90;;;;;;4992737;28;20256;-72
2021/04/30 07:02:43;;;;;;;43.00;29.97;;;9.50;99.90;;;;;;5030719;28;20269;-72
2021/04/30 07:05:10;;;;;;;37.80;28.00;;;9.60;99.90;;;;;;4978155;28;20190;-72
2021/04/30 07:07:35;;;;;;;34.40;27.77;;;9.60;99.90;;;;;;4977822;28;20188;-72
2021/04/30 07:10:02;;;;;;;34.10;26.30;;;9.80;99.90;;;;;;4994372;28;20180;-72
2021/04/30 07:12:27;;;;;;;37.80;27.07;;;9.80;99.90;;;;;;5004612;28;20235;-72
2021/04/30 07:14:53;;;;;;;35.60;28.03;;;10.00;99.90;;;;;;5011624;28;20680;-72
2021/04/30 07:17:18;;;;;;;33.67;27.33;;;10.30;99.90;;;;;;4994061;28;20675;-72
2021/04/30 07:19:44;;;;;;;34.37;26.27;;;10.30;99.90;;;;;;4993927;28;20558;-72
2021/04/30 07:22:11;;;;;;;33.20;26.50;;;10.30;99.90;;;;;;4995284;28;20185;-72
2021/04/30 07:24:36;;;;;;;36.77;26.37;;;10.30;99.90;;;;;;5015135;28;20175;-71
2021/04/30 07:27:04;;;;;;;35.13;26.77;;;10.40;99.90;;;;;;4965325;28;20183;-71
2021/04/30 07:29:29;;;;;;;36.10;27.53;;;10.30;99.90;;;;;;4991630;28;20569;-72
2021/04/30 07:31:56;;;;;;;29.80;25.50;;;10.20;99.90;;;;;;5000955;28;20186;-72
2021/04/30 07:34:22;;;;;;;33.83;25.73;;;10.30;99.90;;;;;;4968172;28;20194;-72
2021/04/30 07:36:48;;;;;;;32.00;25.47;;;10.30;99.90;;;;;;4978084;28;20206;-72
2021/04/30 07:39:14;;;;;;;35.17;26.83;;;10.20;99.90;;;;;;4993952;28;20212;-71
2021/04/30 07:41:39;;;;;;;39.47;29.27;;;10.20;99.90;;;;;;4994015;28;20235;-70
2021/04/30 07:44:05;;;;;;;33.70;27.40;;;10.00;99.90;;;;;;4980920;28;20176;-72
2021/04/30 07:46:31;;;;;;;34.93;26.93;;;10.00;99.90;;;;;;4997063;28;20183;-72
2021/04/30 07:48:56;;;;;;;40.00;27.27;;;10.00;99.90;;;;;;5011081;28;20622;-72
2021/04/30 07:51:22;;;;;;;34.50;27.27;;;10.10;99.90;;;;;;5008121;28;20207;-72
2021/04/30 07:53:47;;;;;;;36.57;26.53;;;10.10;99.90;;;;;;5014554;28;20178;-72
2021/04/30 07:56:13;;;;;;;36.37;27.10;;;10.20;99.90;;;;;;4997080;28;20176;-72
2021/04/30 07:58:39;;;;;;;35.20;28.07;;;10.20;99.90;;;;;;5013246;28;20202;-71
2021/04/30 08:01:04;;;;;;;35.97;26.87;;;10.20;99.90;;;;;;4996998;28;20209;-72
2021/04/30 08:03:30;;;;;;;35.23;26.53;;;10.30;99.90;;;;;;5013981;28;20651;-72
2021/04/30 08:05:55;;;;;;;32.50;26.47;;;10.40;99.90;;;;;;4981094;28;20697;-72
2021/04/30 08:08:21;;;;;;;31.87;24.57;;;10.50;99.90;;;;;;4996837;28;20193;-72
2021/04/30 08:10:47;;;;;;;33.00;26.90;;;10.80;99.90;;;;;;4981000;28;20167;-71
2021/04/30 08:13:12;;;;;;;31.30;25.20;;;10.80;99.90;;;;;;4980399;28;20313;-71
2021/04/30 08:15:38;;;;;;;32.10;25.30;;;10.70;99.90;;;;;;5014414;28;20257;-72
2021/04/30 08:18:04;;;;;;;29.27;24.13;;;10.60;99.90;;;;;;4996448;28;20237;-72
2021/04/30 08:20:30;;;;;;;30.93;23.40;;;10.70;99.90;;;;;;5012931;28;20203;-72
2021/04/30 08:22:55;;;;;;;31.80;23.60;;;10.70;99.90;;;;;;4980318;28;20185;-71
2021/04/30 08:25:21;;;;;;;28.23;22.57;;;10.80;99.90;;;;;;4996853;28;20189;-74
2021/04/30 08:27:47;;;;;;;31.13;23.90;;;10.80;99.90;;;;;;5012676;28;20281;-70
2021/04/30 08:30:13;;;;;;;28.10;23.07;;;10.80;99.90;;;;;;5013905;28;20553;-72
2021/04/30 08:32:38;;;;;;;27.40;22.67;;;10.90;99.90;;;;;;4996550;28;20265;-72
2021/04/30 08:35:05;;;;;;;28.80;23.23;;;10.80;99.90;;;;;;5012809;28;20265;-72
2021/04/30 08:37:30;;;;;;;26.37;21.70;;;10.70;99.90;;;;;;4989865;28;20192;-72
2021/04/30 08:39:57;;;;;;;27.47;20.93;;;10.80;99.90;;;;;;4963716;28;20198;-71
2021/04/30 08:42:22;;;;;;;26.80;21.13;;;10.90;99.90;;;;;;5013524;28;20548;-72
2021/04/30 08:44:48;;;;;;;27.77;21.03;;;10.90;99.90;;;;;;4982486;28;20178;-71
2021/04/30 08:47:17;;;;;;;28.27;22.07;;;10.80;99.90;;;;;;5004784;28;20181;-72
2021/04/30 08:49:43;;;;;;;27.90;22.47;;;10.50;99.90;;;;;;4989877;28;20207;-73
2021/04/30 08:52:10;;;;;;;25.43;21.40;;;10.50;99.90;;;;;;4984728;28;20181;-73
2021/04/30 08:54:37;;;;;;;25.90;20.63;;;10.50;99.90;;;;;;4989226;28;20264;-73
2021/04/30 08:57:05;;;;;;;27.20;19.40;;;10.50;99.90;;;;;;4960571;28;20186;-73
2021/04/30 08:59:30;;;;;;;23.30;19.73;;;10.50;99.90;;;;;;4991268;28;20231;-73
2021/04/30 09:01:56;;;;;;;22.37;18.73;;;10.50;99.90;;;;;;4979643;28;20216;-73
2021/04/30 09:04:22;;;;;;;28.93;21.30;;;10.50;99.90;;;;;;5011915;28;20177;-73
2021/04/30 09:06:48;;;;;;;28.60;23.20;;;10.60;99.90;;;;;;4963645;28;20177;-73
2021/04/30 09:09:18;;;;;;;31.43;24.17;;;10.60;99.90;;;;;;4979208;28;20665;-73
2021/04/30 09:11:45;;;;;;;26.77;21.70;;;10.70;99.90;;;;;;4976350;28;20187;-73
2021/04/30 09:14:42;;;;;;;28.57;21.53;;;10.80;99.90;;;;;;4985069;28;20177;-73
2021/04/30 09:17:09;;;;;;;29.27;21.53;;;10.90;99.90;;;;;;5000150;28;20185;-73
2021/04/30 09:19:46;;;;;;;26.27;20.43;;;11.10;99.90;;;;;;4998553;28;20205;-73
2021/04/30 09:22:12;;;;;;;24.60;18.87;;;11.20;99.90;;;;;;5019232;28;20623;-73
2021/04/30 09:24:37;;;;;;;25.13;19.03;;;11.10;99.90;;;;;;4995125;28;20256;-73
2021/04/30 09:27:04;;;;;;;25.47;20.53;;;11.00;99.90;;;;;;4979360;28;20574;-76
2021/04/30 09:29:32;;;;;;;25.60;19.60;;;10.90;99.90;;;;;;4995300;28;20207;-74
2021/04/30 09:31:58;;;;;;;24.13;19.60;;;10.80;99.90;;;;;;4995796;28;20537;-73
2021/04/30 09:34:24;;;;;;;23.87;17.83;;;10.80;99.90;;;;;;4979240;28;20273;-72
2021/04/30 09:37:19;;;;;;;23.63;19.07;;;10.70;99.90;;;;;;5012858;28;20658;-71
2021/04/30 09:39:58;;;;;;;27.43;20.13;;;10.60;99.90;;;;;;5013076;28;20220;-72
2021/04/30 09:42:31;;;;;;;32.13;20.30;;;10.60;99.90;;;;;;4995151;28;20263;-72
2021/04/30 09:45:00;;;;;;;30.20;21.33;;;10.40;99.90;;;;;;4978824;28;20537;-71
2021/04/30 09:47:26;;;;;;;27.30;20.57;;;10.40;99.90;;;;;;4995334;28;20176;-72
2021/04/30 09:49:56;;;;;;;24.80;20.23;;;10.30;99.90;;;;;;5012579;28;20183;-71
2021/04/30 09:52:23;;;;;;;24.97;20.50;;;10.30;99.90;;;;;;4994944;28;20178;-71
2021/04/30 09:54:49;;;;;;;27.80;19.67;;;10.40;99.90;;;;;;4994681;28;20575;-75
2021/04/30 09:57:17;;;;;;;27.23;21.37;;;10.40;99.90;;;;;;4994998;28;20173;-72
2021/04/30 09:59:56;;;;;;;28.60;22.80;;;10.50;99.90;;;;;;4979001;28;20197;-72
2021/04/30 10:02:22;;;;;;;26.50;19.93;;;10.50;99.90;;;;;;5001976;28;20171;-73
2021/04/30 10:04:49;;;;;;;25.87;19.70;;;10.50;99.90;;;;;;4978871;28;20160;-72
2021/04/30 10:07:24;;;;;;;28.23;21.80;;;10.40;99.90;;;;;;4994891;28;20169;-73
2021/04/30 10:09:59;;;;;;;27.50;21.30;;;10.50;99.90;;;;;;4995662;28;20317;-72
2021/04/30 10:12:26;;;;;;;28.03;21.30;;;10.40;99.90;;;;;;4994686;28;20674;-72
2021/04/30 10:14:52;;;;;;;25.20;20.63;;;10.50;99.90;;;;;;4994729;28;20225;-73
2021/04/30 10:17:18;;;;;;;27.57;21.63;;;10.50;99.90;;;;;;4994585;28;20546;-73
2021/04/30 10:19:45;;;;;;;28.40;20.87;;;10.50;99.90;;;;;;4978072;28;20205;-73
2021/04/30 10:22:16;;;;;;;29.10;22.33;;;10.40;99.90;;;;;;4978064;28;20196;-73
2021/04/30 10:24:45;;;;;;;27.80;22.07;;;10.30;99.90;;;;;;4989194;28;20176;-72
2021/04/30 10:27:16;;;;;;;29.17;22.30;;;10.20;99.90;;;;;;4994669;28;20172;-72
2021/04/30 10:29:43;;;;;;;29.43;22.47;;;10.20;99.90;;;;;;4991661;28;20273;-72
2021/04/30 10:32:08;;;;;;;31.03;23.20;;;10.20;99.90;;;;;;4994256;28;20199;-73
2021/04/30 10:34:37;;;;;;;30.07;23.43;;;10.20;99.90;;;;;;4993974;28;20593;-72
2021/04/30 10:37:02;;;;;;;28.90;22.80;;;10.20;99.90;;;;;;4978443;28;20204;-72
2021/04/30 10:39:31;;;;;;;27.83;22.07;;;10.20;99.90;;;;;;4994132;28;20677;-71
2021/04/30 10:41:57;;;;;;;31.13;23.03;;;10.10;99.90;;;;;;4994821;28;20197;-72
2021/04/30 10:44:26;;;;;;;29.47;23.07;;;10.10;99.90;;;;;;4978149;28;20231;-73
2021/04/30 10:47:12;;;;;;;28.77;23.20;;;10.10;99.90;;;;;;4994850;28;20258;-73
2021/04/30 10:49:38;;;;;;;35.40;24.37;;;10.10;99.90;;;;;;5001024;28;20211;-72
2021/04/30 10:52:07;;;;;;;33.63;24.83;;;10.10;99.90;;;;;;4994410;28;20189;-72
2021/04/30 10:54:36;;;;;;;30.30;23.87;;;10.10;99.90;;;;;;5028467;28;20236;-72
2021/04/30 10:57:05;;;;;;;30.80;23.63;;;10.10;99.90;;;;;;5015643;28;20532;-72
2021/04/30 10:59:38;;;;;;;34.33;24.93;;;10.20;99.90;;;;;;5001193;28;20198;-72
2021/04/30 11:02:20;;;;;;;35.40;26.67;;;10.20;99.90;;;;;;5017556;28;20197;-72
2021/04/30 11:05:05;;;;;;;35.87;26.23;;;10.30;99.90;;;;;;4998658;28;20171;-75
2021/04/30 11:07:47;;;;;;;36.90;27.30;;;10.30;99.90;;;;;;5015619;28;20189;-73
2021/04/30 11:10:22;;;;;;;37.03;26.80;;;10.30;99.90;;;;;;4966294;28;20181;-73
2021/04/30 11:12:57;;;;;;;42.07;28.33;;;10.40;99.90;;;;;;5015564;28;20184;-72
2021/04/30 11:15:22;;;;;;;42.77;28.73;;;10.40;99.90;;;;;;5013662;28;20190;-74
2021/04/30 11:18:03;;;;;;;41.60;30.50;;;10.70;99.90;;;;;;4995717;28;20682;-73
2021/04/30 11:20:30;;;;;;;46.90;30.03;;;10.70;99.90;;;;;;4981349;28;20201;-73
2021/04/30 11:23:33;;;;;;;45.80;30.53;;;10.80;99.90;;;;;;4997870;28;20237;-73
2021/04/30 11:26:04;;;;;;;44.77;30.40;;;11.00;99.90;;;;;;5015312;28;20525;-73
2021/04/30 11:28:29;;;;;;;45.63;30.23;;;11.00;99.90;;;;;;4997345;28;20670;-72
2021/04/30 11:31:24;;;;;;;48.00;30.30;;;11.00;99.90;;;;;;5016189;28;20260;-72
2021/04/30 11:34:09;;;;;;;51.10;31.77;;;11.00;99.90;;;;;;5013423;28;20217;-72
2021/04/30 11:36:36;;;;;;;47.83;30.03;;;11.00;99.90;;;;;;4996868;28;20181;-75
2021/04/30 11:39:35;;;;;;;47.50;30.73;;;11.00;99.90;;;;;;4980893;28;20358;-75
2021/04/30 11:42:03;;;;;;;44.80;30.07;;;11.10;99.90;;;;;;4961036;28;20249;-74
2021/04/30 11:44:29;;;;;;;45.10;30.90;;;11.20;99.90;;;;;;5001262;28;20199;-74
2021/04/30 11:47:01;;;;;;;45.80;30.97;;;11.40;99.90;;;;;;4986691;28;20669;-75
2021/04/30 11:49:27;;;;;;;45.43;30.67;;;11.50;99.90;;;;;;4987658;28;20213;-75
2021/04/30 11:51:53;;;;;;;41.80;28.80;;;11.70;99.90;;;;;;5005510;28;20179;-74
2021/04/30 11:54:19;;;;;;;40.37;28.43;;;11.90;99.90;;;;;;4980876;28;20242;-75
2021/04/30 11:56:45;;;;;;;43.10;29.50;;;12.00;99.90;;;;;;4980830;28;20179;-76
2021/04/30 11:59:20;;;;;;;42.73;30.20;;;12.40;99.90;;;;;;4996963;28;20214;-75
2021/04/30 12:02:06;;;;;;;49.47;31.60;;;12.60;99.90;;;;;;4980842;28;20232;-75
2021/04/30 12:04:40;;;;;;;52.80;32.67;;;12.60;99.90;;;;;;4998534;28;20159;-75
2021/04/30 12:07:07;;;;;;;56.23;34.03;;;12.60;99.90;;;;;;4996810;28;20171;-75
2021/04/30 12:09:32;;;;;;;54.87;34.57;;;12.60;99.90;;;;;;4964335;28;20328;-75
2021/04/30 12:12:23;;;;;;;57.67;32.53;;;12.40;99.90;;;;;;4980683;28;20301;-74
2021/04/30 12:14:55;;;;;;;57.07;34.30;;;12.40;99.90;;;;;;4987895;28;20577;-73
2021/04/30 12:17:28;;;;;;;53.83;33.53;;;12.30;99.90;;;;;;4989270;28;20188;-75
2021/04/30 12:19:59;;;;;;;53.57;31.87;;;12.50;99.90;;;;;;4989326;28;20225;-77
2021/04/30 12:22:25;;;;;;;56.70;33.43;;;12.30;99.90;;;;;;4996857;28;20593;-76
2021/04/30 12:24:50;;;;;;;53.83;33.30;;;12.20;99.90;;;;;;4996468;28;20183;-77
2021/04/30 12:27:30;;;;;;;54.50;34.13;;;12.20;99.90;;;;;;4964292;28;20178;-77
2021/04/30 12:29:56;;;;;;;56.43;34.00;;;12.20;99.90;;;;;;4980238;28;20524;-77
2021/04/30 12:32:23;;;;;;;58.97;32.93;;;12.00;99.90;;;;;;4980227;28;20194;-76
2021/04/30 12:34:48;;;;;;;55.27;33.23;;;11.90;99.90;;;;;;4980344;28;20258;-76